sensor_id;sensor_type;location;lat;lon;timestamp;temperature;humidity
80937;DHT22;70395;51.382;7.074;2024-03-02T00:01:05;10.90;53.70
80937;DHT22;70395;51.382;7.074;2024-03-02T00:03:32;10.90;53.50
80937;DHT22;70395;51.382;7.074;2024-03-02T00:05:57;10.90;53.70
80937;DHT22;70395;51.382;7.074;2024-03-02T00:08:25;10.90;53.60
80937;DHT22;70395;51.382;7.074;2024-03-02T00:10:51;10.90;53.50
80937;DHT22;70395;51.382;7.074;2024-03-02T00:13:21;10.90;53.70
80937;DHT22;70395;51.382;7.074;2024-03-02T00:15:54;10.90;53.50
80937;DHT22;70395;51.382;7.074;2024-03-02T00:18:30;10.90;53.70
80937;DHT22;70395;51.382;7.074;2024-03-02T00:20:58;10.90;53.70
80937;DHT22;70395;51.382;7.074;2024-03-02T00:23:33;10.90;53.60
80937;DHT22;70395;51.382;7.074;2024-03-02T00:26:00;10.90;53.60
80937;DHT22;70395;51.382;7.074;2024-03-02T00:28:30;10.90;53.50
80937;DHT22;70395;51.382;7.074;2024-03-02T00:36:05;10.90;53.50
80937;DHT22;70395;51.382;7.074;2024-03-02T00:38:33;10.90;53.70
80937;DHT22;70395;51.382;7.074;2024-03-02T00:41:04;10.90;53.60
80937;DHT22;70395;51.382;7.074;2024-03-02T00:43:39;11.00;53.60
80937;DHT22;70395;51.382;7.074;2024-03-02T00:46:10;11.00;53.50
80937;DHT22;70395;51.382;7.074;2024-03-02T00:49:01;11.00;53.60
80937;DHT22;70395;51.382;7.074;2024-03-02T00:51:33;11.00;53.50
80937;DHT22;70395;51.382;7.074;2024-03-02T00:54:02;11.00;53.50
80937;DHT22;70395;51.382;7.074;2024-03-02T00:56:33;11.00;53.40
80937;DHT22;70395;51.382;7.074;2024-03-02T00:59:00;11.10;53.50
80937;DHT22;70395;51.382;7.074;2024-03-02T01:01:26;11.10;53.40
80937;DHT22;70395;51.382;7.074;2024-03-02T01:03:52;11.10;53.30
80937;DHT22;70395;51.382;7.074;2024-03-02T01:06:18;11.10;53.20
80937;DHT22;70395;51.382;7.074;2024-03-02T01:08:45;11.20;53.20
80937;DHT22;70395;51.382;7.074;2024-03-02T01:11:12;11.20;53.00
80937;DHT22;70395;51.382;7.074;2024-03-02T01:13:38;11.20;53.00
80937;DHT22;70395;51.382;7.074;2024-03-02T01:16:04;11.30;52.90
80937;DHT22;70395;51.382;7.074;2024-03-02T01:18:30;11.30;52.80
80937;DHT22;70395;51.382;7.074;2024-03-02T01:20:56;11.40;52.80
80937;DHT22;70395;51.382;7.074;2024-03-02T01:23:23;11.40;52.70
80937;DHT22;70395;51.382;7.074;2024-03-02T01:25:49;11.40;52.70
80937;DHT22;70395;51.382;7.074;2024-03-02T01:28:16;11.50;52.50
80937;DHT22;70395;51.382;7.074;2024-03-02T01:30:42;11.50;52.50
80937;DHT22;70395;51.382;7.074;2024-03-02T01:33:08;11.60;52.40
80937;DHT22;70395;51.382;7.074;2024-03-02T01:35:34;11.60;52.30
80937;DHT22;70395;51.382;7.074;2024-03-02T01:38:01;11.60;52.20
80937;DHT22;70395;51.382;7.074;2024-03-02T01:40:27;11.60;52.10
80937;DHT22;70395;51.382;7.074;2024-03-02T01:42:54;11.70;52.00
80937;DHT22;70395;51.382;7.074;2024-03-02T01:45:21;11.70;51.80
80937;DHT22;70395;51.382;7.074;2024-03-02T01:47:47;11.70;51.60
80937;DHT22;70395;51.382;7.074;2024-03-02T01:50:13;11.70;51.60
80937;DHT22;70395;51.382;7.074;2024-03-02T01:52:40;11.70;51.50
80937;DHT22;70395;51.382;7.074;2024-03-02T01:55:06;11.70;51.40
80937;DHT22;70395;51.382;7.074;2024-03-02T01:57:33;11.70;51.50
80937;DHT22;70395;51.382;7.074;2024-03-02T02:00:00;11.60;51.40
80937;DHT22;70395;51.382;7.074;2024-03-02T02:02:26;11.60;51.40
80937;DHT22;70395;51.382;7.074;2024-03-02T02:04:52;11.60;51.40
80937;DHT22;70395;51.382;7.074;2024-03-02T02:07:18;11.50;51.40
80937;DHT22;70395;51.382;7.074;2024-03-02T02:09:44;11.50;51.40
80937;DHT22;70395;51.382;7.074;2024-03-02T02:12:10;11.60;51.60
80937;DHT22;70395;51.382;7.074;2024-03-02T02:14:36;11.50;51.50
80937;DHT22;70395;51.382;7.074;2024-03-02T02:17:03;11.50;51.50
80937;DHT22;70395;51.382;7.074;2024-03-02T02:19:29;11.50;51.60
80937;DHT22;70395;51.382;7.074;2024-03-02T02:21:55;11.40;51.60
80937;DHT22;70395;51.382;7.074;2024-03-02T02:24:21;11.40;51.70
80937;DHT22;70395;51.382;7.074;2024-03-02T02:26:46;11.40;51.80
80937;DHT22;70395;51.382;7.074;2024-03-02T02:29:12;11.40;51.80
80937;DHT22;70395;51.382;7.074;2024-03-02T02:31:39;11.40;51.90
80937;DHT22;70395;51.382;7.074;2024-03-02T02:34:06;11.40;51.90
80937;DHT22;70395;51.382;7.074;2024-03-02T02:36:33;11.40;51.90
80937;DHT22;70395;51.382;7.074;2024-03-02T02:39:02;11.50;51.90
80937;DHT22;70395;51.382;7.074;2024-03-02T02:41:30;11.50;52.00
80937;DHT22;70395;51.382;7.074;2024-03-02T02:43:56;11.50;51.90
80937;DHT22;70395;51.382;7.074;2024-03-02T02:46:22;11.40;51.80
80937;DHT22;70395;51.382;7.074;2024-03-02T02:48:48;11.50;52.00
80937;DHT22;70395;51.382;7.074;2024-03-02T02:51:13;11.50;51.80
80937;DHT22;70395;51.382;7.074;2024-03-02T02:53:39;11.60;51.90
80937;DHT22;70395;51.382;7.074;2024-03-02T02:56:08;11.50;51.80
80937;DHT22;70395;51.382;7.074;2024-03-02T02:58:35;11.60;51.90
80937;DHT22;70395;51.382;7.074;2024-03-02T03:01:01;11.50;51.80
80937;DHT22;70395;51.382;7.074;2024-03-02T03:03:27;11.60;51.80
80937;DHT22;70395;51.382;7.074;2024-03-02T03:05:52;11.60;51.70
80937;DHT22;70395;51.382;7.074;2024-03-02T03:08:18;11.60;51.70
80937;DHT22;70395;51.382;7.074;2024-03-02T03:10:44;11.60;51.60
80937;DHT22;70395;51.382;7.074;2024-03-02T03:13:10;11.70;51.70
80937;DHT22;70395;51.382;7.074;2024-03-02T03:15:36;11.70;51.60
80937;DHT22;70395;51.382;7.074;2024-03-02T03:18:04;11.70;51.60
80937;DHT22;70395;51.382;7.074;2024-03-02T03:20:30;11.60;51.40
80937;DHT22;70395;51.382;7.074;2024-03-02T03:22:57;11.70;51.50
80937;DHT22;70395;51.382;7.074;2024-03-02T03:25:23;11.80;51.70
80937;DHT22;70395;51.382;7.074;2024-03-02T03:27:48;11.70;51.50
80937;DHT22;70395;51.382;7.074;2024-03-02T03:30:15;11.70;51.50
80937;DHT22;70395;51.382;7.074;2024-03-02T03:32:40;11.70;51.40
80937;DHT22;70395;51.382;7.074;2024-03-02T03:35:07;11.70;51.30
80937;DHT22;70395;51.382;7.074;2024-03-02T03:37:33;11.80;51.40
80937;DHT22;70395;51.382;7.074;2024-03-02T03:40:02;11.80;51.50
80937;DHT22;70395;51.382;7.074;2024-03-02T03:42:32;11.70;51.30
80937;DHT22;70395;51.382;7.074;2024-03-02T03:44:58;11.70;51.40
80937;DHT22;70395;51.382;7.074;2024-03-02T03:47:23;11.70;51.40
80937;DHT22;70395;51.382;7.074;2024-03-02T03:49:49;11.70;51.30
80937;DHT22;70395;51.382;7.074;2024-03-02T03:52:15;11.70;51.30
80937;DHT22;70395;51.382;7.074;2024-03-02T03:54:41;11.80;51.40
80937;DHT22;70395;51.382;7.074;2024-03-02T03:57:08;11.80;51.50
80937;DHT22;70395;51.382;7.074;2024-03-02T03:59:34;11.70;51.40
80937;DHT22;70395;51.382;7.074;2024-03-02T04:01:59;11.70;51.30
80937;DHT22;70395;51.382;7.074;2024-03-02T04:04:25;11.70;51.40
80937;DHT22;70395;51.382;7.074;2024-03-02T04:06:51;11.70;51.40
80937;DHT22;70395;51.382;7.074;2024-03-02T04:09:17;11.70;51.40
80937;DHT22;70395;51.382;7.074;2024-03-02T04:11:43;11.70;51.40
80937;DHT22;70395;51.382;7.074;2024-03-02T04:14:08;11.70;51.40
80937;DHT22;70395;51.382;7.074;2024-03-02T04:16:35;11.70;51.30
80937;DHT22;70395;51.382;7.074;2024-03-02T04:19:01;11.70;51.30
80937;DHT22;70395;51.382;7.074;2024-03-02T04:21:27;11.70;51.30
80937;DHT22;70395;51.382;7.074;2024-03-02T04:23:53;11.60;51.30
80937;DHT22;70395;51.382;7.074;2024-03-02T04:26:22;11.70;51.30
80937;DHT22;70395;51.382;7.074;2024-03-02T04:28:48;11.60;51.50
80937;DHT22;70395;51.382;7.074;2024-03-02T04:31:15;11.50;51.40
80937;DHT22;70395;51.382;7.074;2024-03-02T04:33:41;11.50;51.50
80937;DHT22;70395;51.382;7.074;2024-03-02T04:36:07;11.40;51.40
80937;DHT22;70395;51.382;7.074;2024-03-02T04:38:35;11.40;51.60
80937;DHT22;70395;51.382;7.074;2024-03-02T04:41:03;11.30;51.60
80937;DHT22;70395;51.382;7.074;2024-03-02T04:43:31;11.30;51.60
80937;DHT22;70395;51.382;7.074;2024-03-02T04:45:58;11.20;51.70
80937;DHT22;70395;51.382;7.074;2024-03-02T04:48:24;11.30;51.90
80937;DHT22;70395;51.382;7.074;2024-03-02T04:50:50;11.20;51.80
80937;DHT22;70395;51.382;7.074;2024-03-02T04:53:16;11.10;51.90
80937;DHT22;70395;51.382;7.074;2024-03-02T04:55:42;11.10;51.90
80937;DHT22;70395;51.382;7.074;2024-03-02T04:58:08;11.00;52.00
80937;DHT22;70395;51.382;7.074;2024-03-02T05:00:34;11.00;52.10
80937;DHT22;70395;51.382;7.074;2024-03-02T05:03:01;10.90;52.20
80937;DHT22;70395;51.382;7.074;2024-03-02T05:05:27;10.90;52.20
80937;DHT22;70395;51.382;7.074;2024-03-02T05:07:53;10.90;52.50
80937;DHT22;70395;51.382;7.074;2024-03-02T05:10:19;10.80;52.50
80937;DHT22;70395;51.382;7.074;2024-03-02T05:12:44;10.70;52.70
80937;DHT22;70395;51.382;7.074;2024-03-02T05:15:12;10.70;52.60
80937;DHT22;70395;51.382;7.074;2024-03-02T05:17:40;10.70;52.70
80937;DHT22;70395;51.382;7.074;2024-03-02T05:20:10;10.60;52.80
80937;DHT22;70395;51.382;7.074;2024-03-02T05:22:37;10.60;52.80
80937;DHT22;70395;51.382;7.074;2024-03-02T05:25:04;10.60;52.90
80937;DHT22;70395;51.382;7.074;2024-03-02T05:27:30;10.60;53.00
80937;DHT22;70395;51.382;7.074;2024-03-02T05:29:58;10.60;53.00
80937;DHT22;70395;51.382;7.074;2024-03-02T05:32:24;10.50;53.50
80937;DHT22;70395;51.382;7.074;2024-03-02T05:34:50;10.50;53.10
80937;DHT22;70395;51.382;7.074;2024-03-02T05:37:16;10.50;53.30
80937;DHT22;70395;51.382;7.074;2024-03-02T05:39:43;10.50;53.50
80937;DHT22;70395;51.382;7.074;2024-03-02T05:42:09;10.40;53.50
80937;DHT22;70395;51.382;7.074;2024-03-02T05:44:36;10.40;53.50
80937;DHT22;70395;51.382;7.074;2024-03-02T05:47:02;10.40;53.50
80937;DHT22;70395;51.382;7.074;2024-03-02T05:49:29;10.40;53.50
80937;DHT22;70395;51.382;7.074;2024-03-02T05:51:55;10.40;53.80
80937;DHT22;70395;51.382;7.074;2024-03-02T05:54:21;10.40;53.50
80937;DHT22;70395;51.382;7.074;2024-03-02T05:56:47;10.40;54.10
80937;DHT22;70395;51.382;7.074;2024-03-02T05:59:13;10.40;53.50
80937;DHT22;70395;51.382;7.074;2024-03-02T06:04:09;10.30;53.50
80937;DHT22;70395;51.382;7.074;2024-03-02T06:06:36;10.30;53.60
80937;DHT22;70395;51.382;7.074;2024-03-02T06:09:03;10.20;53.40
80937;DHT22;70395;51.382;7.074;2024-03-02T06:11:39;10.20;53.60
80937;DHT22;70395;51.382;7.074;2024-03-02T06:14:07;10.20;53.70
80937;DHT22;70395;51.382;7.074;2024-03-02T06:16:34;10.20;53.80
80937;DHT22;70395;51.382;7.074;2024-03-02T06:19:01;10.10;53.70
80937;DHT22;70395;51.382;7.074;2024-03-02T06:21:27;10.10;53.70
80937;DHT22;70395;51.382;7.074;2024-03-02T06:23:53;10.00;53.80
80937;DHT22;70395;51.382;7.074;2024-03-02T06:26:20;10.00;54.00
80937;DHT22;70395;51.382;7.074;2024-03-02T06:28:46;10.00;54.00
80937;DHT22;70395;51.382;7.074;2024-03-02T06:31:12;9.90;55.10
80937;DHT22;70395;51.382;7.074;2024-03-02T06:33:38;10.00;54.40
80937;DHT22;70395;51.382;7.074;2024-03-02T06:36:04;9.90;55.20
80937;DHT22;70395;51.382;7.074;2024-03-02T06:38:30;9.80;55.10
80937;DHT22;70395;51.382;7.074;2024-03-02T06:40:59;9.80;55.50
80937;DHT22;70395;51.382;7.074;2024-03-02T06:43:25;9.90;55.40
80937;DHT22;70395;51.382;7.074;2024-03-02T06:45:51;9.80;55.30
80937;DHT22;70395;51.382;7.074;2024-03-02T06:48:17;9.80;55.40
80937;DHT22;70395;51.382;7.074;2024-03-02T06:50:49;9.90;55.60
80937;DHT22;70395;51.382;7.074;2024-03-02T06:53:16;9.90;55.60
80937;DHT22;70395;51.382;7.074;2024-03-02T06:55:46;10.00;54.80
80937;DHT22;70395;51.382;7.074;2024-03-02T06:58:12;10.10;54.60
80937;DHT22;70395;51.382;7.074;2024-03-02T07:00:43;10.20;54.50
80937;DHT22;70395;51.382;7.074;2024-03-02T07:03:13;10.50;54.70
80937;DHT22;70395;51.382;7.074;2024-03-02T07:05:39;10.60;54.60
80937;DHT22;70395;51.382;7.074;2024-03-02T07:08:05;10.70;54.40
80937;DHT22;70395;51.382;7.074;2024-03-02T07:10:31;11.00;54.50
80937;DHT22;70395;51.382;7.074;2024-03-02T07:12:57;11.20;54.10
80937;DHT22;70395;51.382;7.074;2024-03-02T07:15:23;11.50;53.90
80937;DHT22;70395;51.382;7.074;2024-03-02T07:18:07;11.50;53.50
80937;DHT22;70395;51.382;7.074;2024-03-02T07:20:33;11.80;53.70
80937;DHT22;70395;51.382;7.074;2024-03-02T07:22:59;12.00;53.30
80937;DHT22;70395;51.382;7.074;2024-03-02T07:25:24;12.20;53.30
80937;DHT22;70395;51.382;7.074;2024-03-02T07:27:50;12.40;53.00
80937;DHT22;70395;51.382;7.074;2024-03-02T07:30:16;12.70;52.70
80937;DHT22;70395;51.382;7.074;2024-03-02T07:32:42;12.90;52.40
80937;DHT22;70395;51.382;7.074;2024-03-02T07:35:12;13.20;52.10
80937;DHT22;70395;51.382;7.074;2024-03-02T07:37:38;13.50;51.70
80937;DHT22;70395;51.382;7.074;2024-03-02T07:40:06;13.80;51.30
80937;DHT22;70395;51.382;7.074;2024-03-02T07:42:35;14.10;51.40
80937;DHT22;70395;51.382;7.074;2024-03-02T07:45:01;14.40;50.60
80937;DHT22;70395;51.382;7.074;2024-03-02T07:47:27;14.80;50.80
80937;DHT22;70395;51.382;7.074;2024-03-02T07:49:52;15.20;50.00
80937;DHT22;70395;51.382;7.074;2024-03-02T07:52:18;15.50;48.80
80937;DHT22;70395;51.382;7.074;2024-03-02T07:54:44;15.90;48.50
80937;DHT22;70395;51.382;7.074;2024-03-02T07:57:10;16.20;48.00
80937;DHT22;70395;51.382;7.074;2024-03-02T07:59:36;16.50;47.90
80937;DHT22;70395;51.382;7.074;2024-03-02T08:02:03;16.80;47.30
80937;DHT22;70395;51.382;7.074;2024-03-02T08:04:28;17.10;46.50
80937;DHT22;70395;51.382;7.074;2024-03-02T08:06:54;17.20;46.60
80937;DHT22;70395;51.382;7.074;2024-03-02T08:09:20;17.30;45.50
80937;DHT22;70395;51.382;7.074;2024-03-02T08:11:46;17.40;45.40
80937;DHT22;70395;51.382;7.074;2024-03-02T08:14:12;17.40;44.70
80937;DHT22;70395;51.382;7.074;2024-03-02T08:16:38;17.40;45.30
80937;DHT22;70395;51.382;7.074;2024-03-02T08:19:04;17.50;45.10
80937;DHT22;70395;51.382;7.074;2024-03-02T08:21:30;17.60;45.30
80937;DHT22;70395;51.382;7.074;2024-03-02T08:23:57;17.70;43.90
80937;DHT22;70395;51.382;7.074;2024-03-02T08:26:23;17.60;44.40
80937;DHT22;70395;51.382;7.074;2024-03-02T08:28:49;17.60;44.60
80937;DHT22;70395;51.382;7.074;2024-03-02T08:31:15;17.70;44.10
80937;DHT22;70395;51.382;7.074;2024-03-02T08:33:41;17.90;44.60
80937;DHT22;70395;51.382;7.074;2024-03-02T08:36:07;18.10;44.20
80937;DHT22;70395;51.382;7.074;2024-03-02T08:38:35;18.30;44.40
80937;DHT22;70395;51.382;7.074;2024-03-02T08:41:01;18.60;42.70
80937;DHT22;70395;51.382;7.074;2024-03-02T08:43:26;18.80;42.30
80937;DHT22;70395;51.382;7.074;2024-03-02T08:45:52;18.90;41.50
80937;DHT22;70395;51.382;7.074;2024-03-02T08:48:18;19.10;42.10
80937;DHT22;70395;51.382;7.074;2024-03-02T08:50:45;19.20;40.70
80937;DHT22;70395;51.382;7.074;2024-03-02T08:53:11;19.40;42.10
80937;DHT22;70395;51.382;7.074;2024-03-02T08:55:37;19.60;41.60
80937;DHT22;70395;51.382;7.074;2024-03-02T08:58:03;19.90;42.10
80937;DHT22;70395;51.382;7.074;2024-03-02T09:00:29;20.10;40.50
80937;DHT22;70395;51.382;7.074;2024-03-02T09:02:54;20.40;41.00
80937;DHT22;70395;51.382;7.074;2024-03-02T09:05:20;20.60;40.20
80937;DHT22;70395;51.382;7.074;2024-03-02T09:07:46;20.80;39.10
80937;DHT22;70395;51.382;7.074;2024-03-02T09:10:12;20.90;37.80
80937;DHT22;70395;51.382;7.074;2024-03-02T09:12:38;20.80;37.40
80937;DHT22;70395;51.382;7.074;2024-03-02T09:15:05;20.90;38.70
80937;DHT22;70395;51.382;7.074;2024-03-02T09:17:34;21.00;38.00
80937;DHT22;70395;51.382;7.074;2024-03-02T09:20:00;21.10;38.50
80937;DHT22;70395;51.382;7.074;2024-03-02T09:22:26;21.30;38.40
80937;DHT22;70395;51.382;7.074;2024-03-02T09:24:51;21.50;37.20
80937;DHT22;70395;51.382;7.074;2024-03-02T09:27:17;21.70;37.40
80937;DHT22;70395;51.382;7.074;2024-03-02T09:29:43;21.80;36.80
80937;DHT22;70395;51.382;7.074;2024-03-02T09:32:12;21.80;36.10
80937;DHT22;70395;51.382;7.074;2024-03-02T09:34:41;21.80;35.10
80937;DHT22;70395;51.382;7.074;2024-03-02T09:37:07;21.70;36.00
80937;DHT22;70395;51.382;7.074;2024-03-02T09:39:33;21.70;36.10
80937;DHT22;70395;51.382;7.074;2024-03-02T09:42:00;21.70;36.10
80937;DHT22;70395;51.382;7.074;2024-03-02T09:44:26;21.80;36.10
80937;DHT22;70395;51.382;7.074;2024-03-02T09:46:52;21.80;35.20
80937;DHT22;70395;51.382;7.074;2024-03-02T09:49:18;21.90;36.20
80937;DHT22;70395;51.382;7.074;2024-03-02T09:51:48;22.00;36.80
80937;DHT22;70395;51.382;7.074;2024-03-02T09:54:17;22.20;35.90
80937;DHT22;70395;51.382;7.074;2024-03-02T09:56:44;22.30;35.60
80937;DHT22;70395;51.382;7.074;2024-03-02T09:59:10;22.50;36.20
80937;DHT22;70395;51.382;7.074;2024-03-02T10:01:36;22.60;35.70
80937;DHT22;70395;51.382;7.074;2024-03-02T10:04:02;22.80;35.80
80937;DHT22;70395;51.382;7.074;2024-03-02T10:06:29;22.90;35.20
80937;DHT22;70395;51.382;7.074;2024-03-02T10:08:55;23.00;34.70
80937;DHT22;70395;51.382;7.074;2024-03-02T10:11:33;23.20;35.10
80937;DHT22;70395;51.382;7.074;2024-03-02T10:14:10;23.30;34.50
80937;DHT22;70395;51.382;7.074;2024-03-02T10:16:38;23.40;34.40
80937;DHT22;70395;51.382;7.074;2024-03-02T10:19:19;23.50;34.10
80937;DHT22;70395;51.382;7.074;2024-03-02T10:21:50;23.60;33.30
80937;DHT22;70395;51.382;7.074;2024-03-02T10:24:21;23.70;33.60
80937;DHT22;70395;51.382;7.074;2024-03-02T10:26:48;23.80;33.80
80937;DHT22;70395;51.382;7.074;2024-03-02T10:29:15;23.90;33.00
80937;DHT22;70395;51.382;7.074;2024-03-02T10:31:43;23.90;33.10
80937;DHT22;70395;51.382;7.074;2024-03-02T10:34:12;23.90;32.50
80937;DHT22;70395;51.382;7.074;2024-03-02T10:36:42;23.90;32.70
80937;DHT22;70395;51.382;7.074;2024-03-02T10:39:09;23.90;32.70
80937;DHT22;70395;51.382;7.074;2024-03-02T10:41:37;23.80;32.20
80937;DHT22;70395;51.382;7.074;2024-03-02T10:44:05;23.80;32.20
80937;DHT22;70395;51.382;7.074;2024-03-02T10:46:34;23.80;32.10
80937;DHT22;70395;51.382;7.074;2024-03-02T10:49:03;23.80;32.40
80937;DHT22;70395;51.382;7.074;2024-03-02T10:51:31;23.90;32.80
80937;DHT22;70395;51.382;7.074;2024-03-02T10:53:59;23.90;32.10
80937;DHT22;70395;51.382;7.074;2024-03-02T10:56:53;24.00;33.00
80937;DHT22;70395;51.382;7.074;2024-03-02T10:59:35;24.10;31.90
80937;DHT22;70395;51.382;7.074;2024-03-02T11:02:04;24.30;32.50
80937;DHT22;70395;51.382;7.074;2024-03-02T11:04:32;24.40;31.80
80937;DHT22;70395;51.382;7.074;2024-03-02T11:07:06;24.50;31.70
80937;DHT22;70395;51.382;7.074;2024-03-02T11:09:34;24.60;32.30
80937;DHT22;70395;51.382;7.074;2024-03-02T11:12:15;24.80;31.30
80937;DHT22;70395;51.382;7.074;2024-03-02T11:14:51;24.80;30.50
80937;DHT22;70395;51.382;7.074;2024-03-02T11:17:20;24.70;30.90
80937;DHT22;70395;51.382;7.074;2024-03-02T11:19:47;24.80;31.90
80937;DHT22;70395;51.382;7.074;2024-03-02T11:22:14;24.90;31.80
80937;DHT22;70395;51.382;7.074;2024-03-02T11:24:51;25.10;30.90
80937;DHT22;70395;51.382;7.074;2024-03-02T11:33:00;25.50;29.60
80937;DHT22;70395;51.382;7.074;2024-03-02T11:35:51;25.60;29.60
80937;DHT22;70395;51.382;7.074;2024-03-02T11:38:18;25.70;29.60
80937;DHT22;70395;51.382;7.074;2024-03-02T11:40:44;25.70;29.50
80937;DHT22;70395;51.382;7.074;2024-03-02T11:43:11;25.60;29.60
80937;DHT22;70395;51.382;7.074;2024-03-02T11:45:37;25.50;29.30
80937;DHT22;70395;51.382;7.074;2024-03-02T11:48:08;25.40;29.50
80937;DHT22;70395;51.382;7.074;2024-03-02T11:50:49;25.30;29.70
80937;DHT22;70395;51.382;7.074;2024-03-02T11:53:16;25.20;29.60
80937;DHT22;70395;51.382;7.074;2024-03-02T11:55:45;25.10;29.70
80937;DHT22;70395;51.382;7.074;2024-03-02T11:58:12;24.90;29.80
80937;DHT22;70395;51.382;7.074;2024-03-02T12:00:39;24.90;30.00
80937;DHT22;70395;51.382;7.074;2024-03-02T12:03:08;24.90;30.20
80937;DHT22;70395;51.382;7.074;2024-03-02T12:05:37;24.80;30.00
80937;DHT22;70395;51.382;7.074;2024-03-02T12:08:05;24.70;30.40
80937;DHT22;70395;51.382;7.074;2024-03-02T12:10:32;24.50;30.90
80937;DHT22;70395;51.382;7.074;2024-03-02T12:13:06;24.50;31.10
80937;DHT22;70395;51.382;7.074;2024-03-02T12:15:34;24.50;31.00
80937;DHT22;70395;51.382;7.074;2024-03-02T12:18:04;24.50;31.00
80937;DHT22;70395;51.382;7.074;2024-03-02T12:20:32;24.40;30.70
80937;DHT22;70395;51.382;7.074;2024-03-02T12:23:02;24.10;30.20
80937;DHT22;70395;51.382;7.074;2024-03-02T12:25:30;23.70;30.70
80937;DHT22;70395;51.382;7.074;2024-03-02T12:27:59;23.40;31.50
80937;DHT22;70395;51.382;7.074;2024-03-02T12:30:30;23.10;31.40
80937;DHT22;70395;51.382;7.074;2024-03-02T12:32:56;22.90;32.00
80937;DHT22;70395;51.382;7.074;2024-03-02T12:35:24;22.80;32.10
80937;DHT22;70395;51.382;7.074;2024-03-02T12:37:52;22.70;32.00
80937;DHT22;70395;51.382;7.074;2024-03-02T12:40:20;22.60;32.70
80937;DHT22;70395;51.382;7.074;2024-03-02T12:42:48;22.60;32.50
80937;DHT22;70395;51.382;7.074;2024-03-02T12:45:15;22.50;32.40
80937;DHT22;70395;51.382;7.074;2024-03-02T12:47:42;22.40;32.50
80937;DHT22;70395;51.382;7.074;2024-03-02T12:50:09;22.10;32.70
80937;DHT22;70395;51.382;7.074;2024-03-02T12:52:36;21.90;32.90
80937;DHT22;70395;51.382;7.074;2024-03-02T12:55:04;21.70;33.30
80937;DHT22;70395;51.382;7.074;2024-03-02T12:57:31;21.40;33.50
80937;DHT22;70395;51.382;7.074;2024-03-02T13:00:03;21.20;34.10
80937;DHT22;70395;51.382;7.074;2024-03-02T13:02:40;21.00;34.10
80937;DHT22;70395;51.382;7.074;2024-03-02T13:05:08;20.90;34.80
80937;DHT22;70395;51.382;7.074;2024-03-02T13:07:37;20.70;34.90
80937;DHT22;70395;51.382;7.074;2024-03-02T13:10:05;20.60;35.50
80937;DHT22;70395;51.382;7.074;2024-03-02T13:12:33;20.50;35.10
80937;DHT22;70395;51.382;7.074;2024-03-02T13:14:59;20.30;35.20
80937;DHT22;70395;51.382;7.074;2024-03-02T13:17:25;20.10;35.60
80937;DHT22;70395;51.382;7.074;2024-03-02T13:19:52;20.00;35.90
80937;DHT22;70395;51.382;7.074;2024-03-02T13:22:19;19.80;35.70
80937;DHT22;70395;51.382;7.074;2024-03-02T13:24:45;19.70;35.70
80937;DHT22;70395;51.382;7.074;2024-03-02T13:27:11;19.50;35.90
80937;DHT22;70395;51.382;7.074;2024-03-02T13:29:37;19.30;36.20
80937;DHT22;70395;51.382;7.074;2024-03-02T13:32:03;19.10;36.60
80937;DHT22;70395;51.382;7.074;2024-03-02T13:34:29;18.90;36.60
80937;DHT22;70395;51.382;7.074;2024-03-02T13:36:55;18.70;36.60
80937;DHT22;70395;51.382;7.074;2024-03-02T13:39:21;18.50;37.00
80937;DHT22;70395;51.382;7.074;2024-03-02T13:41:47;18.30;37.90
80937;DHT22;70395;51.382;7.074;2024-03-02T13:44:20;18.10;38.00
80937;DHT22;70395;51.382;7.074;2024-03-02T13:46:47;18.00;38.90
80937;DHT22;70395;51.382;7.074;2024-03-02T13:49:14;17.90;38.10
80937;DHT22;70395;51.382;7.074;2024-03-02T13:51:40;17.90;39.00
80937;DHT22;70395;51.382;7.074;2024-03-02T13:54:05;17.90;38.40
80937;DHT22;70395;51.382;7.074;2024-03-02T13:56:31;17.80;38.60
80937;DHT22;70395;51.382;7.074;2024-03-02T13:58:58;17.80;39.00
80937;DHT22;70395;51.382;7.074;2024-03-02T14:01:24;17.90;39.10
80937;DHT22;70395;51.382;7.074;2024-03-02T14:03:50;17.90;39.10
80937;DHT22;70395;51.382;7.074;2024-03-02T14:06:16;18.00;39.10
80937;DHT22;70395;51.382;7.074;2024-03-02T14:08:42;18.10;39.30
80937;DHT22;70395;51.382;7.074;2024-03-02T14:11:10;18.10;38.90
80937;DHT22;70395;51.382;7.074;2024-03-02T14:13:43;18.20;38.70
80937;DHT22;70395;51.382;7.074;2024-03-02T14:16:13;18.10;38.40
80937;DHT22;70395;51.382;7.074;2024-03-02T14:18:39;18.10;38.50
80937;DHT22;70395;51.382;7.074;2024-03-02T14:21:05;18.10;38.60
80937;DHT22;70395;51.382;7.074;2024-03-02T14:23:31;18.00;38.60
80937;DHT22;70395;51.382;7.074;2024-03-02T14:25:56;17.90;38.60
80937;DHT22;70395;51.382;7.074;2024-03-02T14:28:25;17.90;38.90
80937;DHT22;70395;51.382;7.074;2024-03-02T14:30:51;17.90;39.00
80937;DHT22;70395;51.382;7.074;2024-03-02T14:33:16;17.90;39.00
80937;DHT22;70395;51.382;7.074;2024-03-02T14:35:44;17.90;39.10
80937;DHT22;70395;51.382;7.074;2024-03-02T14:38:11;18.00;39.20
80937;DHT22;70395;51.382;7.074;2024-03-02T14:40:38;18.00;39.30
80937;DHT22;70395;51.382;7.074;2024-03-02T14:43:04;18.10;39.20
80937;DHT22;70395;51.382;7.074;2024-03-02T14:45:30;18.20;39.20
80937;DHT22;70395;51.382;7.074;2024-03-02T14:47:56;18.30;39.10
80937;DHT22;70395;51.382;7.074;2024-03-02T14:50:26;18.40;38.90
80937;DHT22;70395;51.382;7.074;2024-03-02T14:52:52;18.50;38.70
80937;DHT22;70395;51.382;7.074;2024-03-02T14:55:18;18.50;38.40
80937;DHT22;70395;51.382;7.074;2024-03-02T14:57:44;18.40;38.40
80937;DHT22;70395;51.382;7.074;2024-03-02T15:00:10;18.40;38.50
80937;DHT22;70395;51.382;7.074;2024-03-02T15:02:39;18.30;38.70
80937;DHT22;70395;51.382;7.074;2024-03-02T15:05:05;18.20;38.70
80937;DHT22;70395;51.382;7.074;2024-03-02T15:07:32;18.20;39.10
80937;DHT22;70395;51.382;7.074;2024-03-02T15:09:57;18.10;39.10
80937;DHT22;70395;51.382;7.074;2024-03-02T15:12:23;18.00;39.10
80937;DHT22;70395;51.382;7.074;2024-03-02T15:14:49;17.90;39.60
80937;DHT22;70395;51.382;7.074;2024-03-02T15:17:16;17.80;39.80
80937;DHT22;70395;51.382;7.074;2024-03-02T15:19:45;17.80;39.90
80937;DHT22;70395;51.382;7.074;2024-03-02T15:22:12;17.70;40.20
80937;DHT22;70395;51.382;7.074;2024-03-02T15:24:38;17.70;40.40
80937;DHT22;70395;51.382;7.074;2024-03-02T15:27:05;17.70;40.70
80937;DHT22;70395;51.382;7.074;2024-03-02T15:29:33;17.60;40.60
80937;DHT22;70395;51.382;7.074;2024-03-02T15:31:59;17.60;40.60
80937;DHT22;70395;51.382;7.074;2024-03-02T15:34:25;17.50;40.70
80937;DHT22;70395;51.382;7.074;2024-03-02T15:36:52;17.40;40.70
80937;DHT22;70395;51.382;7.074;2024-03-02T15:39:18;17.40;40.70
80937;DHT22;70395;51.382;7.074;2024-03-02T15:41:44;17.30;40.90
80937;DHT22;70395;51.382;7.074;2024-03-02T15:44:10;17.20;40.90